Andraz Bijol

Olheiro - NK Maribor
3 Dez 2028
Domingo
Processo

Personalidade

Adaptabilidade (17) Ambição (12) Controvérsia (19) Lealdade (18) Pressão (1) Profissionalismo (8) Espírito Esportivo (11) Temperamento (17)

Perfil

Estilo de Treinamento Democrático
Licença Continental B
Determinação 7
Gestão de Pessoas 12
Motivação 11
Disciplina 9
Satisfação no Trabalho
100%
Fadiga
0%
Função Olheiro
Salário 31.0K p/s
Contrato 14.03.2029

Desempenho

Comportamento Bom
Eficácia do Treinamento
40%
Desenvolvimento do Jogador
30%
Prevenção de Lesões
30%
Implementação Tática
45%

Eventos Recentes

Participou de uma reunião de recrutamento 7d atrás
Avaliou um jogador 7d atrás
Avaliou um jogador 7d atrás
Avaliou um jogador 7d atrás
Participou de uma reunião de recrutamento 14d atrás
Avaliou um jogador 14d atrás
Observou uma partida 14d atrás
Avaliou um jogador 21d atrás

Monitorando agora

72
Jogador Clube Status Habilidade Confiança Observado Última observação Último voto
Vicente Poggi Godoy Cruz Ativo 121 / 131 40% 1 25.11.2028 -
Augusto Schott Talleres Ativo 119 / 113 40% 1 25.11.2028 -
Felipe Peña Biafore Lanús Ativo 140 / 140 40% 2 24.11.2028 -
Riku Yamane Yokohama F. Marinos Ativo 147 / 127 40% 1 24.11.2028 -
Julián Palacios Envigado Ativo 109 / 115 40% 1 23.11.2028 -
Emanuel Mammana Vélez Ativo 125 / 139 40% 1 23.11.2028 -
Gianluca Ferrari Atlético Tucumán Ativo 110 / 129 40% 2 22.11.2028 -
Lautaro Vargas Unión de Santa Fe Ativo 125 / 111 40% 1 22.11.2028 -
Juan Infante Atlético Tucumán Ativo 133 / 110 40% 1 17.11.2028 -
César Ibáñez Huracán Ativo 123 / 123 40% 1 17.11.2028 -
Gastón Hernández San Lorenzo Ativo 135 / 138 40% 1 12.11.2028 -
Sheyko Studer Independiente Rivadavia Ativo 122 / 112 40% 1 12.11.2028 -
Fabricio Corbalán Gimnasia La Plata Ativo 120 / 112 40% 2 30.10.2028 -
Kevin López Independiente Ativo 138 / 129 40% 1 30.10.2028 -
Pedro Souto Temperley Ativo 131 / 121 40% 3 29.10.2028 -
Mateo Seoane Gimnasia La Plata Ativo 113 / 112 40% 1 28.10.2028 -
Alan Rodríguez Rosario Central Ativo 114 / 123 40% 1 26.10.2028 -
Gonzalo Pérez Lanús Ativo 118 / 119 40% 1 26.10.2028 -
Tomás Porra Barracas Central Ativo 131 / 115 40% 2 25.10.2028 -
Valentín Moreno Tigre Ativo 134 / 120 40% 1 25.10.2028 -
Franco Díaz Temperley Ativo 121 / 128 40% 2 21.10.2028 -
Alcides Benítez Belgrano Ativo 129 / 107 40% 1 14.10.2028 -
Ignacio Abraham Banfield Ativo 119 / 107 40% 1 12.10.2028 -
Siro Rosané Estudiantes Ativo 131 / 105 40% 1 12.10.2028 -
Adrián Sánchez Belgrano Ativo 137 / 119 40% 2 11.10.2028 -
Tobías Leiva Estudiantes Ativo 126 / 110 40% 2 11.10.2028 -
Emanuel Coronel Rosario Central Ativo 140 / 115 40% 1 10.10.2028 -
Koffi Kouao Neftchi Ativo 136 / 129 40% 1 07.10.2028 -
Matías Machado Racing Ativo 113 / 117 40% 1 04.10.2028 -
Njabulo Blom Pakhtakor Ativo 128 / 127 40% 1 06.09.2028 -
Lucas Martínez Quarta Central Córdoba SdE Ativo 140 / 119 40% 1 05.09.2028 -
Alessandro Arena Arezzo Ativo 134 / 113 40% 1 01.08.2028 -
Armand Laurienté Sassuolo Ativo 144 / 149 40% 1 01.08.2028 -
Marco Tumminello Benevento Ativo 112 / 128 40% 1 25.07.2028 -
Malik Mothersille Stockport County Ativo 130 / 124 40% 1 25.07.2028 -
Reuell Walters Luton Town Ativo 128 / 130 40% 1 31.05.2028 -
Patrick Roberts Birmingham Ativo 139 / 121 40% 1 31.05.2028 -
Ludovico Del Sorbo Sorrento Ativo 135 / 123 40% 1 31.05.2028 -
Matías Arias Vélez Ativo 132 / 137 40% 1 17.01.2028 -
Artur Kozyrev Volna Ativo 98 / 92 40% 1 17.01.2028 -
Ryan Kavuma-McQueen Accrington Stanley Ativo 100 / 140 40% 1 31.12.2027 -
Chimobi Igwilo Rangers International Ativo 99 / 89 40% 1 31.12.2027 -
Francisco Machis Llaneros Ativo 82 / 90 40% 1 06.07.2027 -
Adam Boufandar Pro Vercelli Ativo 87 / 103 40% 1 14.06.2027 -
Leandro Martins Benfica Ativo 110 / 101 40% 1 14.06.2027 -
Hosea Michael Remo Stars Ativo 86 / 87 40% 1 18.05.2027 -
Gady Beyuku Blackburn Rovers Ativo 120 / 104 40% 1 13.05.2027 -
Samuele di Benedetto Twente Ativo 97 / 110 40% 3 12.05.2027 -
Rhys Walters Port Vale Ativo 109 / 117 40% 1 12.05.2027 -
Alessandro Zoboletti Sambenedettese Ativo 79 / 102 40% 1 07.05.2027 -
Maxim Radchenko Rostov Ativo 82 / 79 40% 1 03.05.2027 -
Yegor Vedernikov Irkutsk Ativo 86 / 70 40% 2 01.05.2027 -
Kazunari Kita Real Sociedad Ativo 90 / 118 40% 1 29.04.2027 -
Tiago Freitas Benfica Ativo 107 / 99 40% 1 28.04.2027 -
Sascha Britschgi AC Milan Ativo 127 / 131 40% 1 27.04.2027 -
Konta Ismaily Ativo 106 / 106 40% 1 25.04.2027 -
Chari Giwa US Bougouni Ativo 68 / 70 40% 1 21.04.2027 -
Lucan Louw US Bougouni Ativo 85 / 80 40% 1 17.04.2027 -
Ezra Mayers West Ham United Ativo 132 / 127 40% 1 10.04.2027 -
Manu Morlanes Mallorca Ativo 131 / 124 40% 1 31.12.2026 -
Ferland Mendy Real Madrid Ativo 158 / 136 40% 2 13.12.2026 -
Danil Glebov Dinamo Moscow Ativo 121 / 130 40% 2 13.12.2026 -
Eldar Ćivić Baltika Ativo 120 / 128 40% 1 08.12.2026 -
Dean Campbell Northampton Town Ativo 108 / 112 40% 1 21.11.2026 -
Stefan Kovač Baltika Ativo 108 / 108 40% 1 06.11.2026 -
Luka Vešner Tičić NK Celje Ativo 124 / 124 40% 1 05.11.2026 -
Andrés Alarcón Dinamo Makhachkala Ativo 112 / 125 40% 1 18.10.2026 -
Yves Bissouma Tottenham Ativo 147 / 141 40% 1 16.10.2026 -
Fredéric Ananou Olimpija Ljubljana Ativo 95 / 107 40% 1 12.10.2026 -
Johnly Yfeko Exeter City Ativo 125 / 101 40% 1 11.10.2026 -
Facundo Miño Deportivo Riestra Ativo 116 / 129 40% 1 05.10.2026 -
Dwight McNeil Crystal Palace Ativo 145 / 127 40% 1 02.08.2026 -